Terminal Aerodrome Forecast
Issued by NWS

Home | Current Version | Previous Version | Text Only | Print | Product List | Glossary On
Versions: 1 2 3 4 5 6 7 8 9 10 11 12 13 14 15 16
000
FTUS44 KLIX 211100
TAFMSY
TAF
KMSY 211120Z 2112/2212 07007KT P6SM OVC012
     FM220100 06005KT P6SM SCT020
     FM220600 12006KT P6SM SCT020
     FM220800 13005KT 1SM BR BKN020
     FM221100 00000KT 1SM BR BKN008=

USA.gov is the U.S. government's official web portal to all federal, state and local government web resources and services.